Time;durP1;ratioP1;P1;durP2;ratioP2;P2;SDS_P1;SDS_P2;PMS_P1;PMS_P2;Temp;Humidity;BMP_temperature;BMP_pressure;BME280_temperature;BME280_humidity;BME280_pressure;Samples;Min_cycle;Max_cycle;Signal;HPM_P1;HPM_P2
2021/12/06 01:55:37;;;;;;;71.07;36.20;;;;;;;;;;5074010;28;19919;-71
2021/12/06 01:58:04;;;;;;;78.93;40.95;;;;;;;;;;5072734;28;20036;-70
2021/12/06 02:00:36;;;;;;;82.57;43.15;;;;;;;;;;5055785;28;20024;-70
2021/12/06 02:03:08;;;;;;;80.93;40.47;;;;;;;;;;5055793;28;20029;-70
2021/12/06 02:05:37;;;;;;;76.97;39.58;;;;;;;;;;5056212;28;20402;-70
2021/12/06 02:08:05;;;;;;;64.25;35.28;;;;;;;;;;5072583;28;20032;-70
2021/12/06 02:10:31;;;;;;;68.43;35.90;;;;;;;;;;5055686;28;20044;-70
2021/12/06 02:12:57;;;;;;;68.13;35.70;;;;;;;;;;5055626;28;20478;-70
2021/12/06 02:15:56;;;;;;;67.00;35.78;;;;;;;;;;5055522;28;20384;-69
2021/12/06 02:18:43;;;;;;;67.80;35.17;;;;;;;;;;5054043;28;20044;-68
2021/12/06 02:21:11;;;;;;;71.07;37.53;;;;;;;;;;5055264;28;20056;-68
2021/12/06 02:23:36;;;;;;;67.50;36.10;;;;;;;;;;5073419;28;20025;-69
2021/12/06 02:26:02;;;;;;;73.30;37.38;;;;;;;;;;5038824;28;20031;-68
2021/12/06 02:28:28;;;;;;;69.20;36.22;;;;;;;;;;5055435;28;20056;-70
2021/12/06 02:30:53;;;;;;;69.93;37.58;;;;;;;;;;5055498;28;20028;-70
2021/12/06 02:33:19;;;;;;;67.60;36.08;;;;;;;;;;5055465;28;20040;-71
2021/12/06 02:35:45;;;;;;;71.35;36.92;;;;;;;;;;5055448;28;20042;-70
2021/12/06 02:38:10;;;;;;;70.60;37.05;;;;;;;;;;5073061;28;20127;-70
2021/12/06 02:40:38;;;;;;;72.43;37.97;;;;;;;;;;5055136;28;20028;-70
2021/12/06 02:43:06;;;;;;;67.20;36.38;;;;;;;;;;5071840;28;20136;-72
2021/12/06 02:45:31;;;;;;;69.95;36.97;;;;;;;;;;5072014;28;20017;-72
2021/12/06 02:47:58;;;;;;;69.55;36.78;;;;;;;;;;5073171;28;20041;-72
2021/12/06 02:50:33;;;;;;;69.68;35.80;;;;;;;;;;5055299;28;20032;-71
2021/12/06 02:52:59;;;;;;;67.22;36.45;;;;;;;;;;5072989;28;20040;-71
2021/12/06 02:57:55;;;;;;;65.32;35.28;;;;;;;;;;5055059;28;20490;-69
2021/12/06 03:00:23;;;;;;;66.22;35.67;;;;;;;;;;5055330;28;20079;-68
2021/12/06 03:02:48;;;;;;;71.20;36.60;;;;;;;;;;5055098;28;20390;-69
2021/12/06 03:05:14;;;;;;;64.25;36.53;;;;;;;;;;5073052;28;20029;-69
2021/12/06 03:07:39;;;;;;;64.68;36.05;;;;;;;;;;5054963;28;20035;-69
2021/12/06 03:10:06;;;;;;;66.63;36.13;;;;;;;;;;5071702;28;20509;-69
2021/12/06 03:12:31;;;;;;;67.20;37.25;;;;;;;;;;5071724;28;20478;-70
2021/12/06 03:14:58;;;;;;;70.68;36.72;;;;;;;;;;5054898;28;20067;-71
2021/12/06 03:17:27;;;;;;;68.28;35.55;;;;;;;;;;5054822;28;20032;-71
2021/12/06 03:19:54;;;;;;;67.45;35.83;;;;;;;;;;5054849;28;20094;-71
2021/12/06 03:22:20;;;;;;;67.50;36.50;;;;;;;;;;5054932;28;20100;-69
2021/12/06 03:24:50;;;;;;;68.68;36.25;;;;;;;;;;5054767;28;20037;-69
2021/12/06 03:27:16;;;;;;;62.42;35.28;;;;;;;;;;5072689;28;20424;-69
2021/12/06 03:29:42;;;;;;;69.78;36.65;;;;;;;;;;5071477;28;20440;-69
2021/12/06 03:32:08;;;;;;;71.40;36.88;;;;;;;;;;5054678;28;20056;-69
2021/12/06 03:34:34;;;;;;;69.55;36.08;;;;;;;;;;5054712;28;20224;-68
2021/12/06 03:37:01;;;;;;;72.95;38.20;;;;;;;;;;5054661;28;20056;-68
2021/12/06 03:39:30;;;;;;;68.88;36.78;;;;;;;;;;5071462;28;20032;-69
2021/12/06 03:41:58;;;;;;;71.25;37.15;;;;;;;;;;5071298;28;20111;-68
2021/12/06 03:44:26;;;;;;;69.25;36.65;;;;;;;;;;5054718;28;20028;-69
2021/12/06 03:46:54;;;;;;;71.72;38.92;;;;;;;;;;5054654;28;20384;-69
2021/12/06 03:49:20;;;;;;;68.40;37.53;;;;;;;;;;5073999;28;20380;-68
2021/12/06 03:51:48;;;;;;;67.22;36.05;;;;;;;;;;5074502;28;20032;-68
2021/12/06 03:54:16;;;;;;;68.10;36.78;;;;;;;;;;5074497;28;20057;-69
2021/12/06 03:56:43;;;;;;;64.72;35.72;;;;;;;;;;5058420;28;20431;-69
2021/12/06 03:59:08;;;;;;;66.40;35.75;;;;;;;;;;5076130;28;20033;-69
2021/12/06 04:01:34;;;;;;;64.20;35.97;;;;;;;;;;5057933;28;20025;-69
2021/12/06 04:04:01;;;;;;;62.28;34.53;;;;;;;;;;5074828;28;20041;-70
2021/12/06 04:06:27;;;;;;;66.38;33.90;;;;;;;;;;5058158;28;20077;-69
2021/12/06 04:08:52;;;;;;;67.15;35.03;;;;;;;;;;5057984;28;20119;-69
2021/12/06 04:11:18;;;;;;;67.60;35.33;;;;;;;;;;5074614;28;20036;-72
2021/12/06 04:13:45;;;;;;;60.85;33.70;;;;;;;;;;5057943;28;20037;-72
2021/12/06 04:16:11;;;;;;;58.80;31.42;;;;;;;;;;5057865;28;20115;-71
2021/12/06 04:18:38;;;;;;;55.97;30.05;;;;;;;;;;5075799;28;20053;-71
2021/12/06 04:21:05;;;;;;;56.70;30.70;;;;;;;;;;5074350;28;20028;-70
2021/12/06 04:23:32;;;;;;;53.50;30.55;;;;;;;;;;5075669;28;20037;-69
2021/12/06 04:25:58;;;;;;;52.22;28.60;;;;;;;;;;5074392;28;20122;-70
2021/12/06 04:28:24;;;;;;;47.58;25.85;;;;;;;;;;5075753;28;20024;-71
2021/12/06 04:30:50;;;;;;;44.10;25.77;;;;;;;;;;5057656;28;20027;-71
2021/12/06 04:33:17;;;;;;;47.17;25.45;;;;;;;;;;5057649;28;20037;-72
2021/12/06 04:35:47;;;;;;;45.22;25.67;;;;;;;;;;5057638;28;20082;-71
2021/12/06 04:38:13;;;;;;;41.75;24.58;;;;;;;;;;5057777;28;20043;-72
2021/12/06 04:40:39;;;;;;;45.47;25.25;;;;;;;;;;5057294;28;20067;-71
2021/12/06 04:43:05;;;;;;;45.78;24.48;;;;;;;;;;5057495;28;20079;-72
2021/12/06 04:45:31;;;;;;;34.47;21.08;;;;;;;;;;5057005;28;20531;-71
2021/12/06 04:47:57;;;;;;;36.92;20.70;;;;;;;;;;5075270;28;20040;-72
2021/12/06 04:50:25;;;;;;;31.80;19.50;;;;;;;;;;5057198;28;20028;-71
2021/12/06 04:52:52;;;;;;;31.27;19.80;;;;;;;;;;5057282;28;20114;-74
2021/12/06 04:55:23;;;;;;;31.35;18.20;;;;;;;;;;5075012;28;20040;-74
2021/12/06 04:57:49;;;;;;;29.33;17.67;;;;;;;;;;5057037;28;20032;-73
2021/12/06 05:00:19;;;;;;;30.00;17.50;;;;;;;;;;5056700;28;20044;-73
2021/12/06 05:02:46;;;;;;;27.38;16.30;;;;;;;;;;5056815;28;20130;-73
2021/12/06 05:05:20;;;;;;;24.85;15.68;;;;;;;;;;5056884;28;20024;-76
2021/12/06 05:07:52;;;;;;;25.30;15.20;;;;;;;;;;5056945;28;20074;-75
2021/12/06 05:10:18;;;;;;;20.02;13.98;;;;;;;;;;5056982;28;20082;-75
2021/12/06 05:12:44;;;;;;;23.73;13.95;;;;;;;;;;5056817;28;20028;-75
2021/12/06 05:15:10;;;;;;;22.55;14.38;;;;;;;;;;5073639;28;20090;-75
2021/12/06 05:17:36;;;;;;;19.85;13.00;;;;;;;;;;5073540;28;20060;-74
2021/12/06 05:20:03;;;;;;;20.38;13.35;;;;;;;;;;5073263;28;20032;-74
2021/12/06 05:22:30;;;;;;;21.90;13.27;;;;;;;;;;5056787;28;20025;-74
2021/12/06 05:24:56;;;;;;;18.63;11.90;;;;;;;;;;5073362;28;20457;-74
2021/12/06 05:27:27;;;;;;;23.38;15.73;;;;;;;;;;5074224;28;20056;-73
2021/12/06 05:29:57;;;;;;;20.45;14.32;;;;;;;;;;5073236;28;20127;-74
2021/12/06 05:32:25;;;;;;;23.43;15.50;;;;;;;;;;5056412;28;20394;-72
2021/12/06 05:34:57;;;;;;;16.38;11.50;;;;;;;;;;5074360;28;20032;-71
2021/12/06 05:37:23;;;;;;;16.20;11.20;;;;;;;;;;5074211;28;20063;-71
2021/12/06 05:39:48;;;;;;;14.95;11.25;;;;;;;;;;5056307;28;20068;-70
2021/12/06 05:42:15;;;;;;;16.58;10.75;;;;;;;;;;5074151;28;20036;-70
2021/12/06 05:44:41;;;;;;;16.08;10.50;;;;;;;;;;5074332;28;20052;-69
2021/12/06 05:47:06;;;;;;;15.90;10.75;;;;;;;;;;5074259;28;20052;-70
2021/12/06 05:49:32;;;;;;;17.35;11.20;;;;;;;;;;5074107;28;20459;-70
2021/12/06 05:51:57;;;;;;;18.67;11.10;;;;;;;;;;5074035;28;20075;-69
2021/12/06 05:54:24;;;;;;;16.90;10.63;;;;;;;;;;5073494;28;20094;-69
2021/12/06 05:56:50;;;;;;;18.50;11.48;;;;;;;;;;5073959;28;20131;-69
2021/12/06 05:59:15;;;;;;;16.67;11.23;;;;;;;;;;5073902;28;20150;-69
2021/12/06 06:01:41;;;;;;;21.58;12.27;;;;;;;;;;5073562;28;20082;-70
2021/12/06 06:04:06;;;;;;;27.17;16.58;;;;;;;;;;5073696;28;20035;-71
2021/12/06 06:06:33;;;;;;;24.60;16.27;;;;;;;;;;5055813;28;20478;-70
2021/12/06 06:08:59;;;;;;;19.05;12.00;;;;;;;;;;5073737;28;20029;-70
2021/12/06 06:11:25;;;;;;;21.90;11.98;;;;;;;;;;5073006;28;20048;-70
2021/12/06 06:13:50;;;;;;;19.60;11.75;;;;;;;;;;5073521;28;20071;-70
2021/12/06 06:16:19;;;;;;;18.23;11.85;;;;;;;;;;5073562;28;20039;-70
2021/12/06 06:18:45;;;;;;;18.80;11.00;;;;;;;;;;5073472;28;20025;-70
2021/12/06 06:21:11;;;;;;;18.70;11.40;;;;;;;;;;5073547;28;20051;-70
2021/12/06 06:23:36;;;;;;;19.88;11.93;;;;;;;;;;5073645;28;20025;-71
2021/12/06 06:26:02;;;;;;;44.13;21.45;;;;;;;;;;5073522;28;20040;-70
2021/12/06 06:28:27;;;;;;;94.60;55.38;;;;;;;;;;5073423;28;20078;-70
2021/12/06 06:30:53;;;;;;;34.40;15.57;;;;;;;;;;5055438;28;20040;-70
2021/12/06 06:33:18;;;;;;;33.50;15.63;;;;;;;;;;5054913;28;20062;-70
2021/12/06 06:35:44;;;;;;;37.03;17.67;;;;;;;;;;5055454;28;20126;-70
2021/12/06 06:38:10;;;;;;;27.13;13.98;;;;;;;;;;5073364;28;20234;-70
2021/12/06 06:40:35;;;;;;;36.17;15.25;;;;;;;;;;5073220;28;20044;-70
2021/12/06 06:43:01;;;;;;;30.45;14.48;;;;;;;;;;5073254;28;20463;-70
2021/12/06 06:45:26;;;;;;;36.58;15.73;;;;;;;;;;5073372;28;20045;-70
2021/12/06 06:47:52;;;;;;;28.00;13.32;;;;;;;;;;5073306;28;20067;-70
2021/12/06 06:50:19;;;;;;;21.13;11.63;;;;;;;;;;5073253;28;20045;-70
2021/12/06 06:52:44;;;;;;;22.33;11.88;;;;;;;;;;5073207;28;20024;-70
2021/12/06 06:55:10;;;;;;;19.90;11.77;;;;;;;;;;5054992;28;20067;-70
2021/12/06 06:57:36;;;;;;;19.90;11.15;;;;;;;;;;5072981;28;20044;-70
2021/12/06 07:00:04;;;;;;;18.95;11.82;;;;;;;;;;5072865;28;20479;-70
2021/12/06 07:02:29;;;;;;;23.02;12.68;;;;;;;;;;5072927;28;20021;-69
2021/12/06 07:04:55;;;;;;;25.77;12.50;;;;;;;;;;5073046;28;20406;-70
2021/12/06 07:07:20;;;;;;;19.77;11.07;;;;;;;;;;5073007;28;20021;-70
2021/12/06 07:09:45;;;;;;;29.75;13.48;;;;;;;;;;5073022;28;20033;-71
2021/12/06 07:12:15;;;;;;;41.15;16.58;;;;;;;;;;5073018;28;20437;-71
2021/12/06 07:14:41;;;;;;;41.47;16.70;;;;;;;;;;5073055;28;20036;-70
2021/12/06 07:17:07;;;;;;;25.58;12.77;;;;;;;;;;5072990;28;20024;-70
2021/12/06 07:19:32;;;;;;;17.45;11.07;;;;;;;;;;5072892;28;20045;-70
2021/12/06 07:21:58;;;;;;;27.65;19.13;;;;;;;;;;5072848;28;20040;-71
2021/12/06 07:24:24;;;;;;;31.98;21.33;;;;;;;;;;5076181;28;20040;-71
2021/12/06 07:26:49;;;;;;;21.58;12.25;;;;;;;;;;5076780;28;20021;-71
2021/12/06 07:29:14;;;;;;;33.30;13.75;;;;;;;;;;5076519;28;20048;-71
2021/12/06 07:31:40;;;;;;;28.90;14.00;;;;;;;;;;5076750;28;20039;-71
2021/12/06 07:34:05;;;;;;;32.83;13.77;;;;;;;;;;5076869;28;20079;-71
2021/12/06 07:36:31;;;;;;;29.20;12.90;;;;;;;;;;5058698;28;20470;-71
2021/12/06 07:38:56;;;;;;;28.70;15.98;;;;;;;;;;5076514;28;20037;-71
2021/12/06 07:41:23;;;;;;;26.08;15.45;;;;;;;;;;5076364;28;20485;-71
2021/12/06 07:43:49;;;;;;;29.67;19.13;;;;;;;;;;5076487;28;20036;-71
2021/12/06 07:46:15;;;;;;;21.27;14.30;;;;;;;;;;5076555;28;20029;-71
2021/12/06 07:48:40;;;;;;;18.83;9.93;;;;;;;;;;5076475;28;20154;-71
2021/12/06 07:51:06;;;;;;;23.25;11.52;;;;;;;;;;5076472;28;20086;-71
2021/12/06 07:53:33;;;;;;;15.55;9.98;;;;;;;;;;5076002;28;20514;-71
2021/12/06 07:55:59;;;;;;;20.52;10.43;;;;;;;;;;5076559;28;20039;-71
2021/12/06 07:58:25;;;;;;;20.95;11.98;;;;;;;;;;5076146;28;20049;-70
2021/12/06 08:00:51;;;;;;;20.25;11.90;;;;;;;;;;5076277;28;20032;-71
2021/12/06 08:03:19;;;;;;;17.98;11.93;;;;;;;;;;5076039;28;20044;-71
2021/12/06 08:05:46;;;;;;;14.93;10.68;;;;;;;;;;5076186;28;20079;-72
2021/12/06 08:08:14;;;;;;;15.70;10.82;;;;;;;;;;5075987;28;20032;-72
2021/12/06 08:10:44;;;;;;;18.42;12.30;;;;;;;;;;5076014;28;20028;-73
2021/12/06 08:13:10;;;;;;;22.40;13.57;;;;;;;;;;5058224;28;20036;-73
2021/12/06 08:15:36;;;;;;;17.65;11.55;;;;;;;;;;5075778;28;20525;-74
2021/12/06 08:18:02;;;;;;;19.92;13.32;;;;;;;;;;5057965;28;20044;-73
2021/12/06 08:20:27;;;;;;;20.00;14.40;;;;;;;;;;5075823;28;20088;-73
2021/12/06 08:22:53;;;;;;;18.27;13.43;;;;;;;;;;5075507;28;20040;-73
2021/12/06 08:25:18;;;;;;;16.25;11.25;;;;;;;;;;5075821;28;20021;-73
2021/12/06 08:27:44;;;;;;;13.02;10.05;;;;;;;;;;5075688;28;20033;-73
2021/12/06 08:30:11;;;;;;;14.07;10.55;;;;;;;;;;5075715;28;20121;-74
2021/12/06 08:32:36;;;;;;;16.80;12.48;;;;;;;;;;5075590;28;20087;-73
2021/12/06 08:35:03;;;;;;;15.00;11.90;;;;;;;;;;5074956;28;20032;-73
2021/12/06 08:37:28;;;;;;;18.60;12.18;;;;;;;;;;5075527;28;20128;-73
2021/12/06 08:39:54;;;;;;;18.33;12.60;;;;;;;;;;5075284;28;20461;-74
2021/12/06 08:42:19;;;;;;;19.65;13.05;;;;;;;;;;5074423;28;20024;-74
2021/12/06 08:44:45;;;;;;;24.17;13.73;;;;;;;;;;5075355;28;20470;-74
2021/12/06 08:47:10;;;;;;;14.40;10.50;;;;;;;;;;5057546;28;20040;-74
2021/12/06 08:49:36;;;;;;;15.13;10.75;;;;;;;;;;5075276;28;20047;-73
2021/12/06 08:52:02;;;;;;;28.15;10.88;;;;;;;;;;5075257;28;20040;-74
2021/12/06 08:54:29;;;;;;;17.48;11.30;;;;;;;;;;5074680;28;20044;-74
2021/12/06 08:56:59;;;;;;;18.75;11.68;;;;;;;;;;5075156;28;20036;-73
2021/12/06 08:59:24;;;;;;;16.35;11.23;;;;;;;;;;5075224;28;20040;-74
2021/12/06 09:01:50;;;;;;;16.27;11.90;;;;;;;;;;5074780;28;20036;-73
2021/12/06 09:04:16;;;;;;;17.33;12.43;;;;;;;;;;5075113;28;20032;-73
2021/12/06 09:06:45;;;;;;;24.67;16.77;;;;;;;;;;5074917;28;20434;-73
2021/12/06 09:09:12;;;;;;;17.70;12.27;;;;;;;;;;5074775;28;20056;-74
2021/12/06 09:11:38;;;;;;;22.08;14.43;;;;;;;;;;5074878;28;20024;-73
2021/12/06 09:14:04;;;;;;;18.30;12.82;;;;;;;;;;5074885;28;20139;-72
2021/12/06 09:16:29;;;;;;;19.88;12.93;;;;;;;;;;5074751;28;20112;-73
2021/12/06 09:18:55;;;;;;;16.50;12.15;;;;;;;;;;5073052;28;20051;-73
2021/12/06 09:21:21;;;;;;;20.38;12.90;;;;;;;;;;5074565;28;20028;-73
2021/12/06 09:23:48;;;;;;;18.90;12.82;;;;;;;;;;5074560;28;20510;-73
2021/12/06 09:26:14;;;;;;;18.15;12.85;;;;;;;;;;5074614;28;20028;-74
2021/12/06 09:28:40;;;;;;;22.13;14.07;;;;;;;;;;5074598;28;20056;-73
2021/12/06 09:31:06;;;;;;;19.50;14.02;;;;;;;;;;5074443;28;20040;-73
2021/12/06 09:33:33;;;;;;;24.92;15.20;;;;;;;;;;5074461;28;20486;-73
2021/12/06 09:36:00;;;;;;;20.38;14.43;;;;;;;;;;5074280;28;20458;-73
2021/12/06 09:38:34;;;;;;;61.50;33.85;;;;;;;;;;5074229;28;20041;-71
2021/12/06 09:41:00;;;;;;;41.58;24.52;;;;;;;;;;5074297;28;20066;-75
2021/12/06 09:43:26;;;;;;;111.53;53.05;;;;;;;;;;5074150;28;20467;-76
2021/12/06 09:45:52;;;;;;;668.60;308.27;;;;;;;;;;5073898;28;20058;-75
2021/12/06 09:48:18;;;;;;;1132.05;533.75;;;;;;;;;;5073613;28;20020;-75
2021/12/06 09:50:49;;;;;;;1136.10;487.90;;;;;;;;;;5074143;28;20037;-76
2021/12/06 09:53:14;;;;;;;;;;;;;;;;;;5072878;28;20466;-75
2021/12/06 09:55:41;;;;;;;42.58;23.42;;;;;;;;;;5074337;28;19956;-67
2021/12/06 09:58:06;;;;;;;22.80;16.20;;;;;;;;;;5074037;28;20075;-67
2021/12/06 10:00:34;;;;;;;346.15;109.93;;;;;;;;;;5073810;28;20058;-68
2021/12/06 10:03:00;;;;;;;53.92;25.95;;;;;;;;;;5073771;28;20043;-68
2021/12/06 10:05:29;;;;;;;37.25;21.23;;;;;;;;;;5073685;28;20033;-68
2021/12/06 10:07:56;;;;;;;134.35;48.17;;;;;;;;;;5073754;28;20059;-68
2021/12/06 10:10:22;;;;;;;753.88;264.60;;;;;;;;;;5073672;28;20037;-68
2021/12/06 10:12:52;;;;;;;638.55;213.90;;;;;;;;;;5073611;28;20056;-68
2021/12/06 10:15:18;;;;;;;160.88;54.97;;;;;;;;;;5073697;28;20036;-68
2021/12/06 10:17:43;;;;;;;719.58;239.85;;;;;;;;;;5073597;28;20463;-68
2021/12/06 10:20:09;;;;;;;154.38;51.70;;;;;;;;;;5073436;28;20119;-68
2021/12/06 10:22:36;;;;;;;45.15;22.70;;;;;;;;;;5073513;28;20449;-68
2021/12/06 10:25:03;;;;;;;33.55;18.88;;;;;;;;;;5073402;28;20029;-68
2021/12/06 10:27:29;;;;;;;29.60;17.65;;;;;;;;;;5073366;28;20386;-70
2021/12/06 10:29:59;;;;;;;30.73;19.15;;;;;;;;;;5073353;28;20032;-70
2021/12/06 10:32:26;;;;;;;29.95;19.58;;;;;;;;;;5073395;28;20032;-71
2021/12/06 10:34:54;;;;;;;31.95;20.92;;;;;;;;;;5073407;28;20032;-71
2021/12/06 10:37:30;;;;;;;37.58;20.27;;;;;;;;;;5073371;28;20120;-70
2021/12/06 10:39:56;;;;;;;51.30;25.73;;;;;;;;;;5073244;28;20089;-74
2021/12/06 10:42:26;;;;;;;29.50;19.88;;;;;;;;;;5073284;28;20417;-75
2021/12/06 10:44:51;;;;;;;25.77;17.85;;;;;;;;;;5073191;28;20037;-70
2021/12/06 10:47:17;;;;;;;25.88;19.23;;;;;;;;;;5073190;28;20142;-71
2021/12/06 10:49:46;;;;;;;39.65;22.45;;;;;;;;;;5073165;28;20040;-70
2021/12/06 10:52:11;;;;;;;60.63;32.42;;;;;;;;;;5073096;28;20037;-71
2021/12/06 10:54:38;;;;;;;26.98;16.77;;;;;;;;;;5072831;28;20041;-70
2021/12/06 10:57:07;;;;;;;26.00;17.15;;;;;;;;;;5073120;28;20044;-70
2021/12/06 10:59:36;;;;;;;24.10;17.08;;;;;;;;;;5072970;28;20563;-70
2021/12/06 11:02:05;;;;;;;26.35;18.17;;;;;;;;;;5072698;28;20047;-70
2021/12/06 11:04:31;;;;;;;25.60;18.02;;;;;;;;;;5072615;28;20017;-70
2021/12/06 11:07:05;;;;;;;27.60;17.85;;;;;;;;;;5055060;28;20043;-69
2021/12/06 11:09:31;;;;;;;25.40;17.45;;;;;;;;;;5072994;28;20075;-69
2021/12/06 11:11:59;;;;;;;25.90;16.92;;;;;;;;;;5073017;28;20040;-69
2021/12/06 11:14:36;;;;;;;25.33;17.23;;;;;;;;;;5072960;28;20497;-69
2021/12/06 11:17:10;;;;;;;23.13;16.70;;;;;;;;;;5072982;28;20546;-69
2021/12/06 11:19:37;;;;;;;22.70;16.50;;;;;;;;;;5072945;28;20041;-69
2021/12/06 11:22:10;;;;;;;23.98;16.38;;;;;;;;;;5072751;28;20071;-68
2021/12/06 11:24:40;;;;;;;27.50;17.73;;;;;;;;;;5072707;28;20044;-73
2021/12/06 11:27:13;;;;;;;27.08;17.17;;;;;;;;;;5072881;28;20479;-68
2021/12/06 11:29:49;;;;;;;26.52;16.75;;;;;;;;;;5072858;28;20380;-67
2021/12/06 11:32:17;;;;;;;26.23;16.30;;;;;;;;;;5072744;28;20033;-67
2021/12/06 11:34:54;;;;;;;26.52;16.63;;;;;;;;;;5072665;28;20039;-69
2021/12/06 11:37:22;;;;;;;24.67;16.05;;;;;;;;;;5072591;28;20036;-70
2021/12/06 11:40:10;;;;;;;26.27;16.70;;;;;;;;;;5054636;28;20032;-70
2021/12/06 11:42:47;;;;;;;25.23;16.52;;;;;;;;;;5072864;28;20128;-70
2021/12/06 11:45:12;;;;;;;26.27;16.13;;;;;;;;;;5072606;28;20036;-70
2021/12/06 11:47:38;;;;;;;25.13;16.42;;;;;;;;;;5072561;28;20390;-69
2021/12/06 11:50:04;;;;;;;23.27;14.80;;;;;;;;;;5054782;28;20475;-69
2021/12/06 11:52:31;;;;;;;23.77;15.85;;;;;;;;;;5072596;28;20024;-70
2021/12/06 11:55:04;;;;;;;23.80;15.70;;;;;;;;;;5072293;28;20135;-71
2021/12/06 11:57:42;;;;;;;22.17;14.93;;;;;;;;;;5072261;28;20063;-70
2021/12/06 12:00:08;;;;;;;24.02;15.02;;;;;;;;;;5072380;28;20045;-70
2021/12/06 12:02:33;;;;;;;23.75;15.68;;;;;;;;;;5072239;28;20398;-70
2021/12/06 12:05:17;;;;;;;24.25;15.65;;;;;;;;;;5072379;28;20025;-70
2021/12/06 12:07:53;;;;;;;24.83;15.60;;;;;;;;;;5054460;28;20060;-70
2021/12/06 12:10:28;;;;;;;33.75;18.08;;;;;;;;;;5073913;28;20033;-70
2021/12/06 12:12:54;;;;;;;70.57;31.48;;;;;;;;;;5076055;28;20036;-70
2021/12/06 12:15:19;;;;;;;28.70;17.75;;;;;;;;;;5076059;28;20032;-70
2021/12/06 12:17:46;;;;;;;27.40;16.65;;;;;;;;;;5041397;28;20406;-70
2021/12/06 12:20:11;;;;;;;27.50;16.73;;;;;;;;;;5075840;28;20052;-70
2021/12/06 12:22:39;;;;;;;21.70;14.77;;;;;;;;;;5075880;28;20090;-70
2021/12/06 12:25:10;;;;;;;24.92;14.52;;;;;;;;;;5075752;28;20086;-71
2021/12/06 12:27:48;;;;;;;21.60;14.27;;;;;;;;;;5075668;28;20072;-70
2021/12/06 12:30:14;;;;;;;19.75;13.60;;;;;;;;;;5057740;28;20043;-70
2021/12/06 12:32:39;;;;;;;23.02;14.05;;;;;;;;;;5075517;28;20032;-71
2021/12/06 12:35:06;;;;;;;20.27;13.57;;;;;;;;;;5075537;28;20422;-70
2021/12/06 12:37:33;;;;;;;23.70;14.27;;;;;;;;;;5075654;28;20036;-70
2021/12/06 12:40:00;;;;;;;19.48;13.63;;;;;;;;;;5075380;28;20041;-70
2021/12/06 12:42:25;;;;;;;20.00;13.35;;;;;;;;;;5075629;28;20081;-70
2021/12/06 12:44:52;;;;;;;17.52;12.60;;;;;;;;;;5075510;28;20410;-70
2021/12/06 12:47:19;;;;;;;28.83;15.43;;;;;;;;;;5075299;28;20035;-70
2021/12/06 12:49:49;;;;;;;22.23;14.20;;;;;;;;;;5075228;28;20029;-69
2021/12/06 12:52:16;;;;;;;21.38;13.80;;;;;;;;;;5073981;28;20521;-70
2021/12/06 12:54:42;;;;;;;33.05;16.83;;;;;;;;;;5074968;28;20420;-69
2021/12/06 12:57:17;;;;;;;28.30;16.58;;;;;;;;;;5057386;28;20053;-69
2021/12/06 12:59:45;;;;;;;21.25;12.98;;;;;;;;;;5075272;28;20384;-70
2021/12/06 13:02:14;;;;;;;19.50;12.85;;;;;;;;;;5074974;28;20098;-71
2021/12/06 13:04:58;;;;;;;18.73;13.15;;;;;;;;;;5075138;28;20451;-70
2021/12/06 13:07:24;;;;;;;34.03;18.30;;;;;;;;;;5074915;28;20037;-70
2021/12/06 13:09:49;;;;;;;32.05;18.52;;;;;;;;;;5074789;28;20364;-71
2021/12/06 13:12:16;;;;;;;215.82;60.03;;;;;;;;;;5074952;28;20505;-70
2021/12/06 13:15:03;;;;;;;91.75;31.15;;;;;;;;;;5074947;28;20033;-70
2021/12/06 13:17:34;;;;;;;70.35;25.30;;;;;;;;;;5074350;28;20493;-70
2021/12/06 13:20:09;;;;;;;19.95;13.57;;;;;;;;;;5056750;28;20032;-70
2021/12/06 13:22:46;;;;;;;24.33;15.18;;;;;;;;;;5074437;28;20086;-69
2021/12/06 13:25:19;;;;;;;23.88;14.80;;;;;;;;;;5074552;28;20029;-68
2021/12/06 13:27:52;;;;;;;29.52;15.93;;;;;;;;;;5074594;28;20029;-68
2021/12/06 13:30:21;;;;;;;27.60;16.00;;;;;;;;;;5074567;28;20041;-68
2021/12/06 13:32:52;;;;;;;22.63;14.88;;;;;;;;;;5074542;28;20035;-68
2021/12/06 13:35:31;;;;;;;22.63;15.15;;;;;;;;;;5074373;28;20497;-68
2021/12/06 13:38:09;;;;;;;23.95;14.13;;;;;;;;;;5074514;28;20060;-67
2021/12/06 13:40:37;;;;;;;21.95;14.90;;;;;;;;;;5074321;28;20371;-67
2021/12/06 13:43:10;;;;;;;22.02;14.43;;;;;;;;;;5074323;28;20024;-67
2021/12/06 13:45:37;;;;;;;22.95;15.52;;;;;;;;;;5074302;28;20044;-67
2021/12/06 13:48:12;;;;;;;23.42;15.23;;;;;;;;;;5074006;28;20025;-67
2021/12/06 13:50:38;;;;;;;22.00;14.48;;;;;;;;;;5074227;28;20108;-67
2021/12/06 13:53:04;;;;;;;18.75;14.43;;;;;;;;;;5073691;28;20028;-67
2021/12/06 13:55:32;;;;;;;25.65;15.25;;;;;;;;;;5074055;28;20090;-67
2021/12/06 13:58:03;;;;;;;23.05;14.75;;;;;;;;;;5073917;28;20032;-67
2021/12/06 14:00:30;;;;;;;19.05;13.63;;;;;;;;;;5073819;28;20060;-67
2021/12/06 14:03:00;;;;;;;27.50;15.48;;;;;;;;;;5073836;28;20127;-67
2021/12/06 14:05:27;;;;;;;89.83;29.87;;;;;;;;;;5073824;28;20029;-67
2021/12/06 14:07:52;;;;;;;25.20;15.95;;;;;;;;;;5073865;28;20017;-67
2021/12/06 14:10:18;;;;;;;38.80;18.23;;;;;;;;;;5073674;28;20086;-67
2021/12/06 14:12:44;;;;;;;61.58;24.38;;;;;;;;;;5073599;28;20029;-67
2021/12/06 14:15:19;;;;;;;37.72;27.27;;;;;;;;;;5073640;28;20082;-67
2021/12/06 14:17:48;;;;;;;29.42;21.65;;;;;;;;;;5073651;28;20390;-67
2021/12/06 14:20:14;;;;;;;26.60;19.67;;;;;;;;;;5073522;28;20035;-67
2021/12/06 14:22:41;;;;;;;22.17;15.10;;;;;;;;;;5073484;28;20426;-67
2021/12/06 14:25:07;;;;;;;22.52;15.05;;;;;;;;;;5073504;28;20394;-67
2021/12/06 14:27:36;;;;;;;20.65;15.18;;;;;;;;;;5073440;28;20546;-67
2021/12/06 14:30:03;;;;;;;21.48;15.13;;;;;;;;;;5073442;28;20074;-67
2021/12/06 14:32:29;;;;;;;19.58;13.57;;;;;;;;;;5072977;28;20494;-67
2021/12/06 14:34:55;;;;;;;19.40;13.52;;;;;;;;;;5055548;28;20029;-67
2021/12/06 14:37:21;;;;;;;20.30;13.75;;;;;;;;;;5073437;28;20028;-68
2021/12/06 14:39:48;;;;;;;20.08;13.20;;;;;;;;;;5073352;28;20039;-69
2021/12/06 14:42:17;;;;;;;22.48;14.90;;;;;;;;;;5073215;28;20055;-69
2021/12/06 14:44:49;;;;;;;29.38;16.05;;;;;;;;;;5073166;28;20033;-68
2021/12/06 14:47:27;;;;;;;26.45;15.00;;;;;;;;;;5073353;28;20417;-68
2021/12/06 14:49:53;;;;;;;21.23;14.65;;;;;;;;;;5073442;28;20395;-68
2021/12/06 14:52:24;;;;;;;30.48;19.38;;;;;;;;;;5073124;28;20036;-68
2021/12/06 14:55:07;;;;;;;29.67;19.30;;;;;;;;;;5073114;28;20479;-68
2021/12/06 14:57:33;;;;;;;34.50;17.05;;;;;;;;;;5073202;28;20047;-68
2021/12/06 15:00:07;;;;;;;40.10;18.38;;;;;;;;;;5072966;28;20046;-68
2021/12/06 15:02:38;;;;;;;33.25;15.93;;;;;;;;;;5072918;28;20036;-68
2021/12/06 15:05:04;;;;;;;22.60;15.15;;;;;;;;;;5073001;28;20520;-68
2021/12/06 15:07:29;;;;;;;32.47;22.40;;;;;;;;;;5072920;28;20025;-67
2021/12/06 15:09:55;;;;;;;32.63;18.95;;;;;;;;;;5072939;28;20067;-67
2021/12/06 15:12:21;;;;;;;36.60;17.73;;;;;;;;;;5073056;28;20029;-69
2021/12/06 15:14:47;;;;;;;31.50;17.17;;;;;;;;;;5073071;28;20035;-68
2021/12/06 15:17:13;;;;;;;29.90;17.00;;;;;;;;;;5073002;28;20032;-69
2021/12/06 15:19:40;;;;;;;52.67;23.08;;;;;;;;;;5072949;28;20615;-67
2021/12/06 15:22:06;;;;;;;37.55;21.27;;;;;;;;;;5072872;28;20047;-67
2021/12/06 15:24:33;;;;;;;171.50;55.72;;;;;;;;;;5072884;28;20032;-67
2021/12/06 15:27:00;;;;;;;53.17;25.40;;;;;;;;;;5072872;28;20052;-67
2021/12/06 15:29:34;;;;;;;77.30;30.17;;;;;;;;;;5072930;28;20041;-67
2021/12/06 15:32:01;;;;;;;200.32;105.32;;;;;;;;;;5072887;28;20040;-67
2021/12/06 15:34:29;;;;;;;254.20;62.30;;;;;;;;;;5072870;28;20029;-66
2021/12/06 15:36:55;;;;;;;43.65;21.17;;;;;;;;;;5072717;28;20055;-66
2021/12/06 15:39:21;;;;;;;72.93;26.48;;;;;;;;;;5072118;28;20391;-67
2021/12/06 15:41:55;;;;;;;37.38;18.38;;;;;;;;;;5072491;28;20045;-67
2021/12/06 15:44:23;;;;;;;148.38;40.15;;;;;;;;;;5072602;28;20041;-67
2021/12/06 15:46:56;;;;;;;105.88;30.70;;;;;;;;;;5058610;28;20504;-67
2021/12/06 15:49:22;;;;;;;488.73;127.53;;;;;;;;;;5076272;28;20437;-67
2021/12/06 15:51:49;;;;;;;153.10;48.38;;;;;;;;;;5076353;28;20036;-67
2021/12/06 15:54:17;;;;;;;296.13;74.93;;;;;;;;;;5075862;28;20051;-67
2021/12/06 15:56:43;;;;;;;47.38;21.75;;;;;;;;;;5076410;28;20036;-67
2021/12/06 15:59:11;;;;;;;27.98;19.63;;;;;;;;;;5076211;28;20046;-67
2021/12/06 16:01:42;;;;;;;46.47;17.33;;;;;;;;;;5075954;28;20032;-67
2021/12/06 16:04:12;;;;;;;59.22;18.00;;;;;;;;;;5076143;28;20037;-67
2021/12/06 16:06:38;;;;;;;69.05;21.25;;;;;;;;;;5076245;28;20111;-67
2021/12/06 16:09:08;;;;;;;220.60;46.85;;;;;;;;;;5057893;28;20107;-66
2021/12/06 16:11:34;;;;;;;23.10;14.90;;;;;;;;;;5075746;28;20078;-66
2021/12/06 16:14:03;;;;;;;91.45;27.23;;;;;;;;;;5073664;28;20484;-67
2021/12/06 16:16:29;;;;;;;39.03;17.00;;;;;;;;;;5069704;28;20490;-66